Time;durP1;ratioP1;P1;durP2;ratioP2;P2;SDS_P1;SDS_P2;PMS_P1;PMS_P2;Temp;Humidity;BMP_temperature;BMP_pressure;BME280_temperature;BME280_humidity;BME280_pressure;Samples;Min_cycle;Max_cycle;Signal;HPM_P1;HPM_P2
2023/10/02 00:04:19;;;;;;;15.90;12.23;;;;;;;;;;2610526;54;20451;-78
2023/10/02 00:09:49;;;;;;;15.57;12.47;;;;;;;;;;2610129;54;20390;-78
2023/10/02 00:15:18;;;;;;;15.73;12.07;;;;;;;;;;2610557;54;20536;-78
2023/10/02 00:21:17;;;;;;;11.90;10.60;;;;;;;;;;2610062;54;20504;-78
2023/10/02 00:26:36;;;;;;;14.20;11.10;;;;;;;;;;2609514;54;21690;-78
2023/10/02 00:32:11;;;;;;;16.47;10.40;;;;;;;;;;2610277;54;20417;-78
2023/10/02 00:43:34;;;;;;;16.30;11.60;;;;;;;;;;2610536;54;20507;-78
2023/10/02 00:49:23;;;;;;;16.47;10.90;;;;;;;;;;2609181;54;20410;-78
2023/10/02 00:54:52;;;;;;;15.30;11.00;;;;;;;;;;2611880;54;20378;-78
2023/10/02 01:00:22;;;;;;;15.63;11.20;;;;;;;;;;2610979;54;20396;-78
2023/10/02 01:05:54;;;;;;;16.57;11.20;;;;;;;;;;2610369;54;20366;-78
2023/10/02 01:11:23;;;;;;;13.70;10.43;;;;;;;;;;2609675;54;20528;-78
2023/10/02 01:16:54;;;;;;;16.33;12.47;;;;;;;;;;2610674;54;21090;-79
2023/10/02 01:25:27;;;;;;;16.63;11.57;;;;;;;;;;2610840;39;21526;-79
2023/10/02 01:31:01;;;;;;;17.73;11.00;;;;;;;;;;2613643;54;20386;-78
2023/10/02 01:36:31;;;;;;;17.57;11.40;;;;;;;;;;2614341;54;20463;-79
2023/10/02 01:42:01;;;;;;;14.27;12.13;;;;;;;;;;2611856;54;20395;-79
2023/10/02 01:47:41;;;;;;;15.50;11.20;;;;;;;;;;2613304;54;20941;-78
2023/10/02 02:04:47;;;;;;;16.33;10.87;;;;;;;;;;2611787;54;20490;-80
2023/10/02 02:10:16;;;;;;;15.80;11.23;;;;;;;;;;2610608;54;20447;-79
2023/10/02 02:19:07;;;;;;;12.30;10.33;;;;;;;;;;2610662;54;21001;-78
2023/10/02 02:34:14;;;;;;;15.30;11.50;;;;;;;;;;2610394;54;20500;-78
2023/10/02 02:39:43;;;;;;;15.30;11.73;;;;;;;;;;2610571;54;20391;-78
2023/10/02 02:42:30;;;;;;;15.87;10.70;;;;;;;;;;2611610;54;20439;-78
2023/10/02 02:44:56;;;;;;;18.50;12.70;;;;;;;;;;2610758;47;20450;-78
2023/10/02 02:50:28;;;;;;;18.60;10.60;;;;;;;;;;2610056;54;20419;-77
2023/10/02 02:56:10;;;;;;;15.97;11.57;;;;;;;;;;2610314;54;20387;-77
2023/10/02 03:01:40;;;;;;;17.97;11.70;;;;;;;;;;2612068;54;20420;-78
2023/10/02 03:07:18;;;;;;;18.57;10.47;;;;;;;;;;2609569;54;20375;-78
2023/10/02 03:12:51;;;;;;;13.70;10.53;;;;;;;;;;2610457;54;20407;-78
2023/10/02 03:18:43;;;;;;;14.10;10.50;;;;;;;;;;2610015;54;20382;-78
2023/10/02 03:27:38;;;;;;;18.20;11.73;;;;;;;;;;2609965;54;20442;-78
2023/10/02 03:38:57;;;;;;;20.23;12.03;;;;;;;;;;2610108;54;20423;-78
2023/10/02 03:44:27;;;;;;;14.20;10.37;;;;;;;;;;2611729;54;21026;-78
2023/10/02 03:50:01;;;;;;;17.73;11.70;;;;;;;;;;2611451;54;20412;-77
2023/10/02 03:55:33;;;;;;;13.90;10.37;;;;;;;;;;2611647;54;20403;-78
2023/10/02 04:01:03;;;;;;;19.47;11.80;;;;;;;;;;2610924;54;20513;-78
2023/10/02 04:06:33;;;;;;;22.47;12.17;;;;;;;;;;2622595;54;20390;-76
2023/10/02 04:12:07;;;;;;;14.00;11.33;;;;;;;;;;2626465;54;20407;-76
2023/10/02 04:17:37;;;;;;;14.27;11.07;;;;;;;;;;2627525;54;20412;-77
2023/10/02 04:23:21;;;;;;;16.07;10.27;;;;;;;;;;2626818;54;20483;-77
2023/10/02 04:28:54;;;;;;;18.23;11.20;;;;;;;;;;2626055;54;20356;-77
2023/10/02 04:37:48;;;;;;;14.53;11.50;;;;;;;;;;2626254;54;20497;-77
2023/10/02 04:43:23;;;;;;;16.90;11.53;;;;;;;;;;2616610;54;20521;-77
2023/10/02 04:48:59;;;;;;;18.70;13.70;;;;;;;;;;2616742;54;20961;-77
2023/10/02 04:54:28;;;;;;;19.67;13.83;;;;;;;;;;2616832;54;20453;-78
2023/10/02 05:00:00;;;;;;;17.80;12.50;;;;;;;;;;2616962;54;20387;-77
2023/10/02 05:05:34;;;;;;;18.40;12.33;;;;;;;;;;2616184;54;22903;-78
2023/10/02 05:11:08;;;;;;;14.60;11.53;;;;;;;;;;2622655;54;20953;-77
2023/10/02 05:16:38;;;;;;;17.47;12.37;;;;;;;;;;2614142;39;20781;-78
2023/10/02 05:22:08;;;;;;;18.90;12.27;;;;;;;;;;2611564;54;20407;-78
2023/10/02 05:27:38;;;;;;;16.50;12.50;;;;;;;;;;2611387;46;21051;-77
2023/10/02 05:33:09;;;;;;;19.07;13.10;;;;;;;;;;2610582;54;20575;-78
2023/10/02 05:38:39;;;;;;;23.80;13.03;;;;;;;;;;2609027;54;20387;-78
2023/10/02 05:44:19;;;;;;;17.57;11.17;;;;;;;;;;2608883;54;20418;-78
2023/10/02 05:49:49;;;;;;;18.83;13.33;;;;;;;;;;2613091;54;20387;-78
2023/10/02 05:55:18;;;;;;;19.77;13.77;;;;;;;;;;2612170;54;20475;-77
2023/10/02 06:00:51;;;;;;;23.47;12.50;;;;;;;;;;2614026;39;20752;-77
2023/10/02 06:06:21;;;;;;;17.33;10.90;;;;;;;;;;2613109;54;20426;-77
2023/10/02 06:17:43;;;;;;;16.33;10.83;;;;;;;;;;2613403;54;20501;-78
2023/10/02 06:38:15;;;;;;;22.80;14.80;;;;;;;;;;2612782;54;20458;-76
2023/10/02 06:43:45;;;;;;;16.73;13.57;;;;;;;;;;2613017;39;20824;-83
2023/10/02 06:49:15;;;;;;;15.53;13.90;;;;;;;;;;2613458;39;20799;-83
2023/10/02 06:54:45;;;;;;;17.30;13.63;;;;;;;;;;2611980;54;20399;-83
2023/10/02 07:00:19;;;;;;;17.27;13.47;;;;;;;;;;2613264;54;20383;-83
2023/10/02 07:05:48;;;;;;;18.73;14.23;;;;;;;;;;2612191;54;20446;-84
2023/10/02 07:11:18;;;;;;;16.63;14.47;;;;;;;;;;2610466;54;20395;-82
2023/10/02 07:16:47;;;;;;;18.67;14.87;;;;;;;;;;2611798;54;20468;-84
2023/10/02 07:22:17;;;;;;;18.97;16.43;;;;;;;;;;2614784;39;20849;-84
2023/10/02 07:27:50;;;;;;;17.53;15.83;;;;;;;;;;2614264;39;20453;-84
2023/10/02 07:33:20;;;;;;;17.83;15.70;;;;;;;;;;2613457;54;20390;-85
2023/10/02 07:38:51;;;;;;;19.70;17.77;;;;;;;;;;2615639;54;20965;-83
2023/10/02 07:44:21;;;;;;;18.70;16.90;;;;;;;;;;2615366;54;20383;-85
2023/10/02 07:49:52;;;;;;;18.60;16.60;;;;;;;;;;2615692;54;20367;-83
2023/10/02 07:55:23;;;;;;;18.33;16.73;;;;;;;;;;2612087;54;20522;-84
2023/10/02 08:00:55;;;;;;;20.60;18.60;;;;;;;;;;2612640;54;20948;-83
2023/10/02 08:03:43;;;;;;;19.07;17.23;;;;;;;;;;2613247;54;20419;-83
2023/10/02 08:12:00;;;;;;;20.30;18.30;;;;;;;;;;2616191;54;20956;-86
2023/10/02 08:23:24;;;;;;;22.57;20.57;;;;;;;;;;2614435;54;20407;-83
2023/10/02 08:28:54;;;;;;;21.20;19.30;;;;;;;;;;2614849;54;20427;-85
2023/10/02 08:31:20;;;;;;;19.73;18.03;;;;;;;;;;2611430;54;20424;-83
2023/10/02 08:39:36;;;;;;;21.47;19.57;;;;;;;;;;2614805;54;21113;-81
2023/10/02 08:42:35;;;;;;;20.77;18.93;;;;;;;;;;2614199;51;20412;-81
2023/10/02 08:45:02;;;;;;;22.03;19.93;;;;;;;;;;2620616;54;20395;-81
2023/10/02 08:50:32;;;;;;;21.77;19.77;;;;;;;;;;2617254;54;20407;-83
2023/10/02 08:56:10;;;;;;;20.73;19.03;;;;;;;;;;2615234;54;20415;-82
2023/10/02 09:01:40;;;;;;;20.33;18.53;;;;;;;;;;2614958;54;20399;-81
2023/10/02 09:13:19;;;;;;;21.17;19.37;;;;;;;;;;2615044;54;20548;-80
2023/10/02 09:24:38;;;;;;;23.00;21.00;;;;;;;;;;2611836;54;20383;-82
2023/10/02 09:30:42;;;;;;;21.17;19.17;;;;;;;;;;2611861;54;20383;-81
2023/10/02 09:33:40;;;;;;;21.87;19.57;;;;;;;;;;2611952;47;20443;-81
2023/10/02 09:36:07;;;;;;;22.10;20.27;;;;;;;;;;2613695;54;20419;-81
2023/10/02 09:41:37;;;;;;;22.60;20.53;;;;;;;;;;2612212;54;20412;-82
2023/10/02 09:47:10;;;;;;;23.73;21.53;;;;;;;;;;2611138;54;21013;-83
2023/10/02 09:55:51;;;;;;;21.23;19.03;;;;;;;;;;2612841;54;20551;-83
2023/10/02 10:10:18;;;;;;;23.73;21.27;;;;;;;;;;2614198;54;20706;-82
2023/10/02 10:13:12;;;;;;;20.20;18.37;;;;;;;;;;2613816;47;20415;-82
2023/10/02 10:15:38;;;;;;;22.77;20.67;;;;;;;;;;2617945;47;20503;-83
2023/10/02 10:21:26;;;;;;;24.00;21.40;;;;;;;;;;2613775;54;21025;-83
2023/10/02 10:26:55;;;;;;;22.37;20.17;;;;;;;;;;2613507;54;20387;-82
2023/10/02 10:32:25;;;;;;;21.10;18.97;;;;;;;;;;2612324;54;20545;-78
2023/10/02 10:41:26;;;;;;;23.87;20.70;;;;;;;;;;2610896;54;20425;-79
2023/10/02 10:46:56;;;;;;;22.60;20.60;;;;;;;;;;2611920;54;20411;-82
2023/10/02 11:04:13;;;;;;;24.33;22.00;;;;;;;;;;2619109;54;20423;-87
2023/10/02 11:09:43;;;;;;;21.10;19.17;;;;;;;;;;2614585;54;20961;-87
2023/10/02 11:15:29;;;;;;;25.07;22.47;;;;;;;;;;2614746;54;21024;-84
2023/10/02 11:21:00;;;;;;;21.40;19.50;;;;;;;;;;2614217;54;20386;-87
2023/10/02 11:26:29;;;;;;;23.97;21.57;;;;;;;;;;2616844;54;20379;-88
2023/10/02 11:41:32;;;;;;;22.83;20.43;;;;;;;;;;2617119;54;20487;-87
2023/10/02 11:47:02;;;;;;;21.27;19.10;;;;;;;;;;2616399;54;20973;-88
2023/10/02 11:52:32;;;;;;;22.03;19.90;;;;;;;;;;2616938;54;20404;-87
2023/10/02 11:58:04;;;;;;;21.47;19.27;;;;;;;;;;2616505;54;20384;-86
2023/10/02 12:03:36;;;;;;;21.73;19.67;;;;;;;;;;2617261;54;20395;-88
2023/10/02 12:09:05;;;;;;;21.10;19.13;;;;;;;;;;2615434;54;20393;-87
2023/10/02 12:14:35;;;;;;;20.23;18.40;;;;;;;;;;2616514;39;20626;-86
2023/10/02 12:20:10;;;;;;;22.80;18.97;;;;;;;;;;2617133;54;20403;-87
2023/10/02 12:25:45;;;;;;;21.63;19.50;;;;;;;;;;2619415;54;21028;-85
2023/10/02 12:31:16;;;;;;;23.00;20.73;;;;;;;;;;2615593;54;20406;-83
2023/10/02 12:36:45;;;;;;;23.57;21.00;;;;;;;;;;2617334;54;20423;-88
2023/10/02 12:42:15;;;;;;;21.73;19.47;;;;;;;;;;2616334;54;21894;-89
2023/10/02 12:47:45;;;;;;;21.37;19.03;;;;;;;;;;2616444;54;20398;-85
2023/10/02 12:53:14;;;;;;;22.13;19.87;;;;;;;;;;2617526;54;20374;-86
2023/10/02 12:58:44;;;;;;;21.27;19.40;;;;;;;;;;2616123;54;20391;-87
2023/10/02 13:04:14;;;;;;;20.70;18.80;;;;;;;;;;2622931;54;20403;-86
2023/10/02 13:09:43;;;;;;;19.27;17.37;;;;;;;;;;2617581;54;20394;-86
2023/10/02 13:15:14;;;;;;;20.80;18.80;;;;;;;;;;2618939;54;20416;-85
2023/10/02 13:20:47;;;;;;;21.00;18.80;;;;;;;;;;2616203;54;20954;-87
2023/10/02 13:26:17;;;;;;;21.73;19.50;;;;;;;;;;2618976;54;20400;-86
2023/10/02 13:31:47;;;;;;;21.57;19.50;;;;;;;;;;2619163;54;20384;-86
2023/10/02 13:37:16;;;;;;;21.13;19.07;;;;;;;;;;2621347;54;20418;-83
2023/10/02 13:46:22;;;;;;;20.70;18.90;;;;;;;;;;2618340;54;20415;-87
2023/10/02 13:51:52;;;;;;;22.90;20.80;;;;;;;;;;2619679;54;21119;-85
2023/10/02 13:57:22;;;;;;;21.37;19.27;;;;;;;;;;2621420;54;20394;-87
2023/10/02 14:02:52;;;;;;;22.13;20.03;;;;;;;;;;2621580;47;20419;-87
2023/10/02 14:08:21;;;;;;;21.13;18.93;;;;;;;;;;2622193;54;20387;-86
2023/10/02 14:13:53;;;;;;;18.73;17.13;;;;;;;;;;2621482;54;20519;-84
2023/10/02 14:19:23;;;;;;;19.73;18.03;;;;;;;;;;2623590;54;20418;-85
2023/10/02 14:24:54;;;;;;;19.77;17.90;;;;;;;;;;2622881;54;20383;-83
2023/10/02 14:30:24;;;;;;;21.70;17.70;;;;;;;;;;2619239;31;20822;-85
2023/10/02 14:35:55;;;;;;;17.80;16.10;;;;;;;;;;2622694;54;20403;-86
2023/10/02 14:41:26;;;;;;;20.40;18.53;;;;;;;;;;2627924;54;20367;-83
2023/10/02 14:46:56;;;;;;;19.67;17.93;;;;;;;;;;2628169;54;20366;-82
2023/10/02 14:52:26;;;;;;;19.50;17.67;;;;;;;;;;2627873;46;20394;-83
2023/10/02 14:57:56;;;;;;;20.13;18.30;;;;;;;;;;2628197;54;20379;-82
2023/10/02 15:03:26;;;;;;;21.80;19.80;;;;;;;;;;2615397;54;20414;-88
2023/10/02 15:09:02;;;;;;;19.43;17.53;;;;;;;;;;2613961;54;20390;-84
2023/10/02 15:14:36;;;;;;;19.50;17.70;;;;;;;;;;2616065;54;20395;-86
2023/10/02 15:20:06;;;;;;;21.43;19.30;;;;;;;;;;2615295;54;20469;-86
2023/10/02 15:25:36;;;;;;;20.47;18.77;;;;;;;;;;2615389;54;20954;-86
2023/10/02 15:31:07;;;;;;;21.47;19.67;;;;;;;;;;2617651;39;20454;-86
2023/10/02 15:36:37;;;;;;;25.37;18.60;;;;;;;;;;2625576;54;20448;-82
2023/10/02 15:48:16;;;;;;;19.70;18.00;;;;;;;;;;2622611;54;20516;-88
2023/10/02 15:53:46;;;;;;;21.33;19.37;;;;;;;;;;2616980;54;20403;-86
2023/10/02 15:59:16;;;;;;;22.20;20.00;;;;;;;;;;2616315;54;20416;-83
2023/10/02 16:04:46;;;;;;;20.87;18.90;;;;;;;;;;2618168;54;21008;-87
2023/10/02 16:10:16;;;;;;;19.80;18.10;;;;;;;;;;2615974;54;20403;-85
2023/10/02 16:15:46;;;;;;;19.57;17.63;;;;;;;;;;2618700;54;20395;-87
2023/10/02 16:21:20;;;;;;;20.23;18.20;;;;;;;;;;2615284;54;20412;-86
2023/10/02 16:26:50;;;;;;;22.10;20.03;;;;;;;;;;2617603;54;20395;-86
2023/10/02 16:32:20;;;;;;;23.40;20.93;;;;;;;;;;2616711;31;20880;-87
2023/10/02 16:37:49;;;;;;;22.70;20.63;;;;;;;;;;2616069;54;20403;-86
2023/10/02 16:43:19;;;;;;;20.93;19.03;;;;;;;;;;2614980;54;20410;-86
2023/10/02 16:46:20;;;;;;;24.50;22.10;;;;;;;;;;2617377;47;20434;-87
2023/10/02 16:48:49;;;;;;;20.73;18.80;;;;;;;;;;2623028;47;20419;-89
2023/10/02 16:54:18;;;;;;;21.77;19.57;;;;;;;;;;2618913;54;20412;-88
2023/10/02 16:59:48;;;;;;;22.43;19.90;;;;;;;;;;2618627;54;20980;-86
2023/10/02 17:05:18;;;;;;;22.80;20.60;;;;;;;;;;2618146;31;21072;-83
2023/10/02 17:10:48;;;;;;;21.70;19.50;;;;;;;;;;2615546;54;20416;-83
2023/10/02 17:16:18;;;;;;;21.43;18.37;;;;;;;;;;2616866;39;20755;-91
2023/10/02 17:21:48;;;;;;;17.53;15.73;;;;;;;;;;2617430;54;20414;-84
2023/10/02 17:27:18;;;;;;;18.47;16.63;;;;;;;;;;2616201;46;20543;-81
2023/10/02 17:32:48;;;;;;;20.30;18.30;;;;;;;;;;2614241;54;20475;-82
2023/10/02 17:38:17;;;;;;;20.97;18.83;;;;;;;;;;2614743;54;20748;-80
2023/10/02 17:43:47;;;;;;;24.03;20.33;;;;;;;;;;2614431;54;20403;-80
2023/10/02 17:46:25;;;;;;;25.97;21.80;;;;;;;;;;2614177;54;20938;-81
2023/10/02 17:48:52;;;;;;;23.77;21.20;;;;;;;;;;2614882;54;20418;-81
2023/10/02 17:54:22;;;;;;;24.10;19.27;;;;;;;;;;2614380;54;20777;-82
2023/10/02 17:59:54;;;;;;;20.73;18.53;;;;;;;;;;2615215;54;21108;-87
2023/10/02 18:05:24;;;;;;;21.03;16.80;;;;;;;;;;2616540;54;20802;-86
2023/10/02 18:10:54;;;;;;;20.30;17.07;;;;;;;;;;2615202;54;21564;-86
2023/10/02 18:16:23;;;;;;;21.20;15.00;;;;;;;;;;2615536;54;21542;-85
2023/10/02 18:21:53;;;;;;;17.60;14.83;;;;;;;;;;2615013;54;20411;-85
2023/10/02 18:27:25;;;;;;;18.60;15.60;;;;;;;;;;2614901;54;20391;-86
2023/10/02 18:32:57;;;;;;;18.50;15.00;;;;;;;;;;2615339;54;20401;-87
2023/10/02 18:38:27;;;;;;;23.57;17.63;;;;;;;;;;2616140;54;20930;-87
2023/10/02 18:44:01;;;;;;;20.93;14.73;;;;;;;;;;2619437;54;20467;-85
2023/10/02 18:52:57;;;;;;;16.73;14.93;;;;;;;;;;2618112;54;20415;-82
2023/10/02 18:58:27;;;;;;;20.13;16.37;;;;;;;;;;2617773;54;20489;-81
2023/10/02 19:03:57;;;;;;;19.67;15.83;;;;;;;;;;2618139;54;20422;-83
2023/10/02 19:09:29;;;;;;;17.17;15.40;;;;;;;;;;2619784;54;20443;-81
2023/10/02 19:14:59;;;;;;;18.83;15.70;;;;;;;;;;2619702;54;20419;-81
2023/10/02 19:20:28;;;;;;;19.57;17.60;;;;;;;;;;2617538;54;21000;-82
2023/10/02 19:25:58;;;;;;;19.20;17.20;;;;;;;;;;2617069;54;20495;-82
2023/10/02 19:31:29;;;;;;;18.90;16.90;;;;;;;;;;2616664;54;21003;-80
2023/10/02 19:36:59;;;;;;;23.60;20.37;;;;;;;;;;2616221;39;20767;-82
2023/10/02 19:42:29;;;;;;;19.23;16.90;;;;;;;;;;2615767;54;20375;-80
2023/10/02 19:47:59;;;;;;;19.83;17.20;;;;;;;;;;2616418;54;20391;-81
2023/10/02 19:53:28;;;;;;;20.77;17.40;;;;;;;;;;2614713;54;20595;-80
2023/10/02 19:58:58;;;;;;;21.10;18.87;;;;;;;;;;2615118;54;20414;-81
2023/10/02 20:04:27;;;;;;;20.47;18.33;;;;;;;;;;2616486;54;20427;-80
2023/10/02 20:09:57;;;;;;;21.57;18.20;;;;;;;;;;2616365;54;20452;-82
2023/10/02 20:15:27;;;;;;;22.90;17.00;;;;;;;;;;2616114;54;20407;-82
2023/10/02 20:20:57;;;;;;;19.87;17.97;;;;;;;;;;2616106;54;20471;-86
2023/10/02 20:26:27;;;;;;;21.17;18.83;;;;;;;;;;2617141;54;20415;-86
2023/10/02 20:31:57;;;;;;;20.57;18.23;;;;;;;;;;2617453;54;20394;-86
2023/10/02 20:37:32;;;;;;;17.83;16.00;;;;;;;;;;2617315;54;20379;-85
2023/10/02 20:43:04;;;;;;;20.67;16.40;;;;;;;;;;2616543;54;20431;-88
2023/10/02 20:48:38;;;;;;;18.10;16.17;;;;;;;;;;2617044;54;20391;-85
2023/10/02 20:57:48;;;;;;;22.10;17.83;;;;;;;;;;2614247;54;21019;-86
2023/10/02 21:03:17;;;;;;;20.20;17.93;;;;;;;;;;2614101;54;20395;-84
2023/10/02 21:08:50;;;;;;;22.67;17.70;;;;;;;;;;2614203;54;20383;-85
2023/10/02 21:14:23;;;;;;;18.70;16.70;;;;;;;;;;2614631;54;20370;-83
2023/10/02 21:19:55;;;;;;;20.17;16.50;;;;;;;;;;2616462;54;20367;-86
2023/10/02 21:25:24;;;;;;;19.80;16.93;;;;;;;;;;2614963;39;20766;-86
2023/10/02 21:30:54;;;;;;;20.10;17.90;;;;;;;;;;2615897;54;20383;-81
2023/10/02 21:36:24;;;;;;;19.17;17.10;;;;;;;;;;2613878;54;20469;-82
2023/10/02 21:41:54;;;;;;;22.63;18.20;;;;;;;;;;2613815;54;20484;-83
2023/10/02 21:44:39;;;;;;;23.53;18.47;;;;;;;;;;2613329;47;20447;-81
2023/10/02 21:47:05;;;;;;;21.03;16.60;;;;;;;;;;2614038;39;20878;-83
2023/10/02 21:52:39;;;;;;;25.00;18.37;;;;;;;;;;2613842;54;20387;-83
2023/10/02 21:58:08;;;;;;;23.47;19.27;;;;;;;;;;2612724;54;20415;-85
2023/10/02 22:03:39;;;;;;;24.77;19.77;;;;;;;;;;2613597;54;20387;-85
2023/10/02 22:09:10;;;;;;;30.57;18.73;;;;;;;;;;2613296;54;20394;-86
2023/10/02 22:14:43;;;;;;;24.30;19.17;;;;;;;;;;2613991;54;20383;-82
2023/10/02 22:20:15;;;;;;;23.17;18.93;;;;;;;;;;2614620;54;20415;-87
2023/10/02 22:25:45;;;;;;;26.10;21.10;;;;;;;;;;2613912;54;20943;-87
2023/10/02 22:31:15;;;;;;;26.53;20.90;;;;;;;;;;2615270;46;20378;-87
2023/10/02 22:36:44;;;;;;;28.43;20.03;;;;;;;;;;2616600;54;20406;-85
2023/10/02 22:42:15;;;;;;;24.77;19.00;;;;;;;;;;2615452;54;20411;-87
2023/10/02 22:47:45;;;;;;;27.47;19.60;;;;;;;;;;2617772;54;20387;-86
2023/10/02 22:53:15;;;;;;;24.83;20.57;;;;;;;;;;2615250;54;20375;-84
2023/10/02 23:02:23;;;;;;;33.63;22.63;;;;;;;;;;2615215;54;20410;-87
2023/10/02 23:07:53;;;;;;;26.47;19.57;;;;;;;;;;2614599;54;20378;-83
2023/10/02 23:13:23;;;;;;;32.87;22.37;;;;;;;;;;2614414;54;20380;-85
2023/10/02 23:18:52;;;;;;;24.60;21.33;;;;;;;;;;2614570;54;20394;-85
2023/10/02 23:24:22;;;;;;;31.50;21.43;;;;;;;;;;2616435;54;20394;-86
2023/10/02 23:29:52;;;;;;;28.13;20.73;;;;;;;;;;2614717;54;20422;-84
2023/10/02 23:35:23;;;;;;;28.77;21.40;;;;;;;;;;2615533;54;20937;-86
2023/10/02 23:40:56;;;;;;;32.27;19.70;;;;;;;;;;2617563;54;20386;-84
2023/10/02 23:46:26;;;;;;;29.43;21.20;;;;;;;;;;2615514;54;20954;-88
2023/10/02 23:51:59;;;;;;;27.40;20.83;;;;;;;;;;2616143;54;20414;-87
2023/10/02 23:57:29;;;;;;;22.60;19.90;;;;;;;;;;2616832;54;20375;-86
